Time;durP1;ratioP1;P1;durP2;ratioP2;P2;SDS_P1;SDS_P2;PMS_P1;PMS_P2;Temp;Humidity;BMP_temperature;BMP_pressure;BME280_temperature;BME280_humidity;BME280_pressure;Samples;Min_cycle;Max_cycle;Signal;HPM_P1;HPM_P2
2023/12/29 00:00:30;;;;;;;58.53;28.77;;;;;;;9.11;70.77;101220.06;5087692;28;20510;-74
2023/12/29 00:02:55;;;;;;;37.90;18.98;;;;;;;8.89;71.29;101187.56;5087740;28;20032;-75
2023/12/29 00:05:21;;;;;;;40.67;22.48;;;;;;;9.04;71.28;101218.75;5087744;28;20495;-76
2023/12/29 00:07:46;;;;;;;52.90;23.63;;;;;;;9.05;71.38;101220.47;5102198;28;20036;-74
2023/12/29 00:10:12;;;;;;;43.95;19.35;;;;;;;8.96;71.47;101215.72;5088077;28;20024;-76
2023/12/29 00:12:37;;;;;;;50.42;21.23;;;;;;;9.00;71.26;101234.16;5087591;28;20518;-76
2023/12/29 00:15:04;;;;;;;39.33;20.55;;;;;;;8.98;71.72;101228.06;5088041;28;20139;-75
2023/12/29 00:17:29;;;;;;;54.70;20.42;;;;;;;8.99;71.17;101226.25;5096619;28;20040;-76
2023/12/29 00:19:55;;;;;;;33.92;20.50;;;;;;;9.05;71.84;101225.84;5095365;28;20126;-74
2023/12/29 00:22:21;;;;;;;35.45;19.83;;;;;;;9.05;71.84;101231.19;5091352;28;20028;-73
2023/12/29 00:24:46;;;;;;;38.17;18.75;;;;;;;9.01;71.57;101218.94;5091253;28;20662;-75
2023/12/29 00:27:14;;;;;;;49.58;19.15;;;;;;;9.08;71.29;101225.63;5091034;28;20055;-75
2023/12/29 00:29:39;;;;;;;48.22;20.45;;;;;;;9.08;71.17;101225.63;5090882;28;20031;-75
2023/12/29 00:32:05;;;;;;;37.80;20.42;;;;;;;9.15;71.50;101222.44;5091348;28;20024;-75
2023/12/29 00:34:30;;;;;;;33.70;20.55;;;;;;;9.17;71.47;101219.66;5092211;28;20017;-76
2023/12/29 00:36:56;;;;;;;33.05;19.50;;;;;;;9.18;71.53;101213.31;5090947;28;20024;-75
2023/12/29 00:39:29;;;;;;;26.35;15.60;;;;;;;9.23;71.51;101208.53;5090913;28;20035;-75
2023/12/29 00:41:56;;;;;;;31.48;15.73;;;;;;;9.21;71.54;101186.28;5090768;28;20054;-75
2023/12/29 00:44:22;;;;;;;31.27;18.25;;;;;;;9.36;71.33;101205.88;5105365;28;20032;-74
2023/12/29 00:46:48;;;;;;;40.85;21.67;;;;;;;9.21;71.39;101191.63;5071310;28;20039;-75
2023/12/29 00:49:13;;;;;;;63.17;24.00;;;;;;;9.39;71.37;101205.69;5090733;28;20554;-75
2023/12/29 00:51:41;;;;;;;42.72;21.98;;;;;;;9.40;71.14;101207.38;5090639;28;20030;-75
2023/12/29 00:54:07;;;;;;;33.45;19.77;;;;;;;9.44;71.34;101209.75;5091388;28;20584;-74
2023/12/29 00:56:33;;;;;;;32.30;18.52;;;;;;;9.33;70.86;101185.44;5090244;28;20028;-75
2023/12/29 00:58:58;;;;;;;32.25;19.15;;;;;;;9.38;70.86;101182.47;5090800;28;20085;-74
2023/12/29 01:01:24;;;;;;;23.33;13.25;;;;;;;9.55;70.74;101209.88;5091012;28;20056;-74
2023/12/29 01:03:49;;;;;;;18.88;11.52;;;;;;;9.47;70.29;101179.16;5090577;28;20024;-75
2023/12/29 01:06:15;;;;;;;23.70;12.40;;;;;;;9.72;70.27;101211.44;5090712;28;20082;-74
2023/12/29 01:08:40;;;;;;;24.05;15.68;;;;;;;9.73;69.82;101197.88;5094870;28;20028;-76
2023/12/29 01:11:06;;;;;;;19.52;13.43;;;;;;;9.84;69.51;101198.03;5093692;28;20111;-75
2023/12/29 01:13:31;;;;;;;22.23;14.05;;;;;;;9.90;69.01;101198.56;5089974;28;20119;-75
2023/12/29 01:15:57;;;;;;;28.77;14.48;;;;;;;9.97;68.68;101200.69;5090911;28;20032;-76
2023/12/29 01:18:22;;;;;;;19.85;13.70;;;;;;;10.00;68.71;101194.28;5090924;28;20052;-74
2023/12/29 01:20:48;;;;;;;28.38;15.00;;;;;;;10.01;68.01;101202.22;5088673;28;20518;-74
2023/12/29 01:23:13;;;;;;;23.20;13.15;;;;;;;10.02;68.18;101198.56;5089759;28;20115;-74
2023/12/29 01:25:39;;;;;;;25.00;14.98;;;;;;;10.08;67.57;101197.28;5090027;28;20043;-76
2023/12/29 01:28:05;;;;;;;26.42;16.73;;;;;;;10.11;67.40;101191.69;5089236;28;20472;-74
2023/12/29 01:30:30;;;;;;;32.97;15.05;;;;;;;10.05;67.43;101176.84;5089830;28;20108;-75
2023/12/29 01:32:56;;;;;;;34.13;19.67;;;;;;;10.12;67.32;101177.28;5090185;28;20165;-77
2023/12/29 01:35:21;;;;;;;31.58;20.25;;;;;;;9.99;66.76;101157.59;5089657;28;20028;-75
2023/12/29 01:37:47;;;;;;;31.98;17.83;;;;;;;9.94;66.61;101147.16;5087336;28;20059;-76
2023/12/29 01:40:12;;;;;;;30.20;18.83;;;;;;;10.09;66.70;101189.09;5089609;28;20507;-74
2023/12/29 01:42:38;;;;;;;39.75;22.27;;;;;;;10.07;66.48;101174.03;5089520;28;20050;-75
2023/12/29 01:45:05;;;;;;;34.83;20.83;;;;;;;10.05;66.26;101176.84;5089787;28;20020;-75
2023/12/29 01:47:31;;;;;;;37.95;21.20;;;;;;;9.95;66.25;101164.16;5089614;28;20032;-76
2023/12/29 01:49:58;;;;;;;44.88;21.17;;;;;;;9.82;66.45;101146.22;5089932;28;20028;-74
2023/12/29 01:52:23;;;;;;;39.17;21.65;;;;;;;9.96;66.89;101171.25;5089845;28;20028;-76
2023/12/29 01:54:52;;;;;;;54.83;21.58;;;;;;;9.87;66.80;101161.16;5089938;28;20039;-74
2023/12/29 01:57:19;;;;;;;57.72;21.75;;;;;;;9.87;66.71;101172.78;5089705;28;20036;-74
2023/12/29 01:59:45;;;;;;;80.22;22.65;;;;;;;9.71;66.89;101130.00;5093042;28;20032;-75
2023/12/29 02:02:11;;;;;;;65.93;24.65;;;;;;;9.92;66.96;101164.38;5090902;28;20101;-75
2023/12/29 02:04:38;;;;;;;47.35;20.00;;;;;;;9.96;66.85;101165.88;5089322;28;20437;-74
2023/12/29 02:07:04;;;;;;;37.63;19.83;;;;;;;9.92;66.99;101156.31;5089423;28;20035;-74
2023/12/29 02:09:29;;;;;;;25.92;14.85;;;;;;;9.98;66.67;101158.56;5088589;28;20586;-74
2023/12/29 02:11:55;;;;;;;30.98;16.60;;;;;;;10.00;66.62;101162.84;5086657;28;20105;-75
2023/12/29 02:14:21;;;;;;;25.80;14.98;;;;;;;10.04;66.29;101152.75;5088741;28;20043;-75
2023/12/29 02:16:59;;;;;;;26.63;17.08;;;;;;;9.90;66.42;101140.31;5103385;28;20063;-74
2023/12/29 02:19:39;;;;;;;27.20;15.48;;;;;;;10.04;66.69;101147.38;5088671;28;20028;-73
2023/12/29 02:22:06;;;;;;;31.60;16.48;;;;;;;10.07;66.75;101152.53;5088653;28;20055;-77
2023/12/29 02:24:33;;;;;;;28.55;18.15;;;;;;;10.07;66.34;101149.84;5088685;28;20060;-74
2023/12/29 02:27:04;;;;;;;44.17;24.25;;;;;;;10.12;66.29;101150.41;5088896;28;20048;-76
2023/12/29 02:29:32;;;;;;;31.20;17.30;;;;;;;10.09;66.36;101150.63;5088763;28;20078;-75
2023/12/29 02:32:00;;;;;;;30.35;17.98;;;;;;;10.01;66.63;101137.72;5088432;28;20069;-74
2023/12/29 02:34:30;;;;;;;31.90;17.83;;;;;;;9.97;66.49;101135.38;5088208;28;20047;-75
2023/12/29 02:36:58;;;;;;;31.65;18.42;;;;;;;10.01;66.62;101142.22;5088212;28;20097;-75
2023/12/29 02:39:24;;;;;;;37.08;19.48;;;;;;;10.01;66.57;101134.16;5087327;28;20414;-74
2023/12/29 02:41:49;;;;;;;30.75;17.38;;;;;;;10.00;66.43;101141.34;5088706;28;20038;-74
2023/12/29 02:44:15;;;;;;;43.22;22.48;;;;;;;10.02;66.67;101130.53;5088833;28;20031;-74
2023/12/29 02:46:41;;;;;;;33.42;17.20;;;;;;;10.03;66.27;101129.56;5088258;28;20473;-77
2023/12/29 02:49:11;;;;;;;29.20;16.85;;;;;;;9.93;66.39;101123.09;5088632;28;20077;-75
2023/12/29 02:51:36;;;;;;;28.73;15.02;;;;;;;9.90;66.74;101131.38;5093868;28;20035;-75
2023/12/29 02:54:02;;;;;;;26.60;16.65;;;;;;;9.77;66.45;101107.22;5090687;28;20024;-75
2023/12/29 02:56:28;;;;;;;28.27;15.05;;;;;;;9.72;66.37;101094.09;5087898;28;20031;-74
2023/12/29 02:58:53;;;;;;;20.42;13.38;;;;;;;9.90;66.54;101131.38;5088207;28;20034;-75
2023/12/29 03:01:19;;;;;;;29.75;14.75;;;;;;;9.78;66.11;101117.81;5087821;28;20024;-76
2023/12/29 03:03:44;;;;;;;24.88;13.15;;;;;;;9.62;66.20;101093.03;5087789;28;20084;-75
2023/12/29 03:06:10;;;;;;;22.52;13.32;;;;;;;9.54;66.32;101075.75;5087944;28;20024;-75
2023/12/29 03:08:35;;;;;;;29.77;14.35;;;;;;;9.79;66.20;101116.88;5087828;28;20042;-74
2023/12/29 03:11:01;;;;;;;31.98;14.10;;;;;;;9.78;66.28;101119.69;5087999;28;20035;-75
2023/12/29 03:13:26;;;;;;;32.50;13.52;;;;;;;9.75;66.17;101112.66;5087646;28;20028;-75
2023/12/29 03:15:52;;;;;;;26.13;15.13;;;;;;;9.70;66.11;101122.88;5087853;28;20032;-76
2023/12/29 03:18:17;;;;;;;29.55;14.45;;;;;;;9.66;66.14;101117.84;5087549;28;20148;-75
2023/12/29 03:20:43;;;;;;;28.00;15.77;;;;;;;9.63;66.01;101108.16;5087736;28;20032;-76
2023/12/29 03:23:09;;;;;;;31.83;14.52;;;;;;;9.56;66.11;101114.09;5087487;28;20032;-75
2023/12/29 03:25:34;;;;;;;27.02;15.30;;;;;;;9.48;66.04;101105.72;5087673;28;20701;-75
2023/12/29 03:28:00;;;;;;;25.83;13.60;;;;;;;9.40;66.33;101111.59;5087663;28;20107;-73
2023/12/29 03:30:26;;;;;;;32.15;14.70;;;;;;;9.37;65.99;101102.88;5087513;28;20080;-75
2023/12/29 03:32:51;;;;;;;27.35;13.95;;;;;;;9.30;66.51;101102.44;5087382;28;20186;-75
2023/12/29 03:35:17;;;;;;;40.63;14.95;;;;;;;9.20;66.67;101079.91;5088218;28;20027;-75
2023/12/29 03:37:42;;;;;;;82.68;18.45;;;;;;;9.37;66.42;101109.13;5087696;28;20653;-75
2023/12/29 03:40:08;;;;;;;78.82;18.00;;;;;;;9.23;66.59;101085.91;5087220;28;20111;-73
2023/12/29 03:42:34;;;;;;;44.45;14.45;;;;;;;9.41;66.48;101110.63;5090100;28;20089;-75
2023/12/29 03:44:59;;;;;;;33.78;14.60;;;;;;;9.31;66.12;101093.44;5088875;28;20028;-75
2023/12/29 03:47:25;;;;;;;30.02;14.15;;;;;;;9.44;66.18;101107.75;5087495;28;20157;-76
2023/12/29 03:49:50;;;;;;;36.53;17.45;;;;;;;9.41;66.14;101113.31;5087730;28;20047;-75
2023/12/29 03:52:16;;;;;;;41.58;17.23;;;;;;;9.45;66.10;101106.75;5091436;28;20040;-74
2023/12/29 03:54:41;;;;;;;33.30;17.60;;;;;;;9.29;65.92;101073.91;5091586;28;20560;-75
2023/12/29 03:57:07;;;;;;;33.97;18.05;;;;;;;9.31;65.92;101085.38;5072033;28;20047;-75
2023/12/29 03:59:35;;;;;;;26.75;16.05;;;;;;;9.44;65.75;101107.75;5091344;28;20662;-74
2023/12/29 04:02:01;;;;;;;32.58;15.90;;;;;;;9.43;65.57;101107.84;5091085;28;20415;-75
2023/12/29 04:04:26;;;;;;;30.63;15.70;;;;;;;9.45;65.74;101112.13;5091385;28;20028;-75
2023/12/29 04:06:53;;;;;;;21.33;13.60;;;;;;;9.38;65.52;101105.47;5090955;28;20063;-76
2023/12/29 04:09:18;;;;;;;36.70;18.77;;;;;;;9.40;65.79;101103.53;5091315;28;20111;-75
2023/12/29 04:11:44;;;;;;;33.75;16.23;;;;;;;9.41;65.83;101101.72;5091265;28;20476;-77
2023/12/29 04:14:12;;;;;;;29.13;14.40;;;;;;;9.47;65.61;101118.28;5090996;28;20077;-75
2023/12/29 04:16:38;;;;;;;23.25;14.13;;;;;;;9.48;65.18;101111.91;5090879;28;20028;-75
2023/12/29 04:19:04;;;;;;;29.88;14.15;;;;;;;9.45;64.83;101112.13;5090956;28;20503;-74
2023/12/29 04:21:29;;;;;;;27.67;13.50;;;;;;;9.44;65.13;101110.44;5091337;28;20032;-75
2023/12/29 04:23:55;;;;;;;24.83;13.25;;;;;;;9.49;65.13;101113.66;5091182;28;20056;-74
2023/12/29 04:26:20;;;;;;;26.33;13.20;;;;;;;9.50;64.89;101126.13;5091196;28;20048;-75
2023/12/29 04:28:46;;;;;;;23.45;12.88;;;;;;;9.45;64.67;101122.03;5090935;28;20468;-75
2023/12/29 04:31:11;;;;;;;30.88;11.73;;;;;;;9.42;64.63;101116.88;5091011;28;20532;-75
2023/12/29 04:33:37;;;;;;;25.65;13.05;;;;;;;9.42;64.38;101116.88;5095741;28;20480;-76
2023/12/29 04:36:02;;;;;;;26.27;14.35;;;;;;;9.46;64.59;101135.34;5097272;28;20035;-74
2023/12/29 04:38:28;;;;;;;33.85;17.70;;;;;;;9.43;64.75;101130.19;5091147;28;20016;-73
2023/12/29 04:40:53;;;;;;;22.73;13.23;;;;;;;9.41;64.47;101132.13;5090623;28;20136;-75
2023/12/29 04:43:19;;;;;;;32.28;13.23;;;;;;;9.39;64.56;101133.19;5071485;28;20046;-76
2023/12/29 04:45:44;;;;;;;22.10;12.32;;;;;;;9.38;64.69;101137.69;5090345;28;20032;-76
2023/12/29 04:48:10;;;;;;;28.35;13.05;;;;;;;9.40;64.65;101140.25;5090547;28;20112;-76
2023/12/29 04:50:35;;;;;;;18.48;11.25;;;;;;;9.37;64.64;101127.91;5090412;28;20039;-74
2023/12/29 04:53:01;;;;;;;30.48;12.05;;;;;;;9.36;64.81;101131.56;5091027;28;20066;-76
2023/12/29 04:55:26;;;;;;;39.92;14.30;;;;;;;9.36;64.41;101147.66;5090928;28;20028;-75
2023/12/29 04:57:52;;;;;;;22.98;12.13;;;;;;;9.38;64.96;101148.44;5090267;28;20024;-74
2023/12/29 05:00:17;;;;;;;34.85;12.60;;;;;;;9.39;64.56;101144.75;5090258;28;20089;-74
2023/12/29 05:02:43;;;;;;;22.40;11.40;;;;;;;9.19;64.46;101110.38;5089204;28;20036;-76
2023/12/29 05:05:09;;;;;;;25.75;12.43;;;;;;;9.38;64.53;101137.69;5090357;28;20047;-76
2023/12/29 05:07:34;;;;;;;23.95;12.70;;;;;;;9.37;64.15;101137.78;5090247;28;20103;-75
2023/12/29 05:10:03;;;;;;;20.90;11.88;;;;;;;9.20;64.05;101104.06;5090376;28;20036;-74
2023/12/29 05:12:29;;;;;;;26.45;13.85;;;;;;;9.36;63.98;101128.03;5089970;28;20020;-75
2023/12/29 05:14:55;;;;;;;22.65;11.95;;;;;;;9.45;63.86;101144.34;5090089;28;20031;-75
2023/12/29 05:17:21;;;;;;;30.73;14.70;;;;;;;9.46;63.53;101135.34;5090455;28;20462;-75
2023/12/29 05:19:46;;;;;;;35.72;12.88;;;;;;;9.42;63.71;101130.28;5090432;28;20032;-74
2023/12/29 05:22:15;;;;;;;28.92;12.90;;;;;;;9.48;63.79;101138.75;5090319;28;20039;-74
2023/12/29 05:24:42;;;;;;;34.35;14.02;;;;;;;9.41;63.48;101110.63;5093010;28;20032;-76
2023/12/29 05:27:07;;;;;;;35.83;13.25;;;;;;;9.60;63.38;101137.91;5094488;28;20073;-76
2023/12/29 05:29:33;;;;;;;31.20;13.88;;;;;;;9.60;63.09;101143.28;5090510;28;20024;-74
2023/12/29 05:31:58;;;;;;;39.30;13.55;;;;;;;9.54;62.82;101132.97;5089736;28;20085;-74
2023/12/29 05:34:24;;;;;;;72.05;16.58;;;;;;;9.41;62.94;101099.91;5089538;28;20551;-76
2023/12/29 05:36:50;;;;;;;57.83;13.63;;;;;;;9.66;63.15;101142.03;5090107;28;20031;-74
2023/12/29 05:39:15;;;;;;;45.33;12.88;;;;;;;9.65;62.68;101125.06;5087180;28;20117;-75
2023/12/29 05:41:40;;;;;;;42.65;16.20;;;;;;;9.61;63.07;101128.03;5089321;28;20107;-75
2023/12/29 05:44:06;;;;;;;30.02;13.73;;;;;;;9.59;62.63;101112.06;5089393;28;20028;-75
2023/12/29 05:46:31;;;;;;;23.40;12.88;;;;;;;9.61;62.59;101133.41;5089255;28;20028;-74
2023/12/29 05:48:57;;;;;;;34.67;14.10;;;;;;;9.56;62.60;101133.75;5089455;28;20036;-75
2023/12/29 05:51:22;;;;;;;30.67;13.65;;;;;;;9.55;62.53;101129.34;5089260;28;20040;-75
2023/12/29 05:53:48;;;;;;;39.17;15.02;;;;;;;9.51;62.49;101117.06;5089235;28;20051;-76
2023/12/29 05:56:15;;;;;;;60.25;16.63;;;;;;;9.60;62.84;101127.19;5089087;28;20412;-76
2023/12/29 05:58:42;;;;;;;37.15;14.88;;;;;;;9.65;62.91;101135.78;5088850;28;20032;-75
2023/12/29 06:01:08;;;;;;;33.72;15.95;;;;;;;9.64;62.45;101134.06;5089051;28;20530;-75
2023/12/29 06:03:33;;;;;;;46.75;18.15;;;;;;;9.52;62.27;101112.56;5086434;28;20075;-77
2023/12/29 06:05:59;;;;;;;49.47;18.75;;;;;;;9.67;62.20;101139.22;5089161;28;20028;-74
2023/12/29 06:08:24;;;;;;;40.00;18.08;;;;;;;9.55;62.22;101115.91;5089093;28;20119;-74
2023/12/29 06:10:50;;;;;;;42.08;18.23;;;;;;;9.58;62.43;101123.75;5089634;28;20024;-75
2023/12/29 06:13:16;;;;;;;32.42;17.60;;;;;;;9.59;62.36;101117.41;5088776;28;20032;-75
2023/12/29 06:15:41;;;;;;;35.40;17.83;;;;;;;9.71;62.15;101130.00;5091986;28;20016;-77
2023/12/29 06:18:06;;;;;;;36.58;17.25;;;;;;;9.59;62.52;101135.34;5094574;28;20088;-75
2023/12/29 06:20:32;;;;;;;52.22;20.42;;;;;;;9.57;62.65;101121.19;5091078;28;20056;-75
2023/12/29 06:22:59;;;;;;;35.22;18.25;;;;;;;9.66;62.30;101133.97;5089068;28;20034;-76
2023/12/29 06:25:24;;;;;;;42.08;17.60;;;;;;;9.58;62.42;101129.13;5088596;28;20076;-75
2023/12/29 06:27:51;;;;;;;48.40;19.25;;;;;;;9.53;62.58;101130.41;5088624;28;20530;-73
2023/12/29 06:30:16;;;;;;;50.17;20.33;;;;;;;9.64;62.74;101139.44;5088338;28;20484;-76
2023/12/29 06:32:42;;;;;;;38.17;17.15;;;;;;;9.46;62.47;101108.50;5088532;28;20035;-75
2023/12/29 06:35:09;;;;;;;40.55;15.73;;;;;;;9.58;62.41;101128.25;5088433;28;20032;-76
2023/12/29 06:37:37;;;;;;;39.08;17.58;;;;;;;9.75;62.07;101147.59;5088531;28;20027;-76
2023/12/29 06:40:03;;;;;;;28.52;14.95;;;;;;;9.81;61.22;101144.47;5088102;28;20601;-76
2023/12/29 06:42:29;;;;;;;35.38;15.20;;;;;;;9.82;61.43;101137.28;5088157;28;20123;-75
2023/12/29 06:44:54;;;;;;;60.42;13.88;;;;;;;9.93;60.78;101150.84;5088458;28;20116;-74
2023/12/29 06:47:20;;;;;;;40.67;13.98;;;;;;;9.95;60.39;101134.59;5088307;28;20115;-76
2023/12/29 06:49:45;;;;;;;44.00;13.63;;;;;;;10.01;60.31;101147.59;5088386;28;20465;-75
2023/12/29 06:52:11;;;;;;;32.60;12.52;;;;;;;10.09;60.29;101158.69;5087980;28;20139;-75
2023/12/29 06:54:36;;;;;;;22.90;13.02;;;;;;;10.17;59.63;101154.50;5088198;28;20032;-77
2023/12/29 06:57:02;;;;;;;29.23;13.20;;;;;;;10.26;59.86;101153.84;5088068;28;20045;-75
2023/12/29 06:59:27;;;;;;;23.85;12.90;;;;;;;10.29;59.34;101158.16;5088509;28;20479;-76
2023/12/29 07:01:53;;;;;;;50.80;24.92;;;;;;;10.25;59.12;101157.50;5088131;28;20056;-77
2023/12/29 07:04:18;;;;;;;30.30;13.80;;;;;;;10.26;59.31;101144.94;5088301;28;20047;-74
2023/12/29 07:06:44;;;;;;;29.30;14.68;;;;;;;10.43;59.31;101158.00;5088139;28;20054;-76
2023/12/29 07:09:09;;;;;;;42.13;14.68;;;;;;;10.46;59.12;101157.78;5089063;28;20077;-76
2023/12/29 07:11:35;;;;;;;55.13;16.92;;;;;;;10.53;58.92;101156.38;5091196;28;20024;-76
2023/12/29 07:14:01;;;;;;;40.15;16.33;;;;;;;10.42;58.82;101137.47;5089377;28;20553;-74
2023/12/29 07:16:27;;;;;;;44.08;18.17;;;;;;;10.60;58.95;101163.03;5088551;28;20032;-76
2023/12/29 07:18:52;;;;;;;30.30;14.57;;;;;;;10.64;58.56;101153.75;5087787;28;20115;-76
2023/12/29 07:21:18;;;;;;;43.10;17.75;;;;;;;10.74;58.29;101165.56;5087696;28;20456;-76
2023/12/29 07:23:44;;;;;;;27.42;14.57;;;;;;;10.69;58.06;101156.97;5087693;28;20081;-75
2023/12/29 07:26:10;;;;;;;36.25;15.05;;;;;;;10.64;57.82;101142.97;5087596;28;20050;-75
2023/12/29 07:28:35;;;;;;;31.02;15.55;;;;;;;10.90;57.68;101176.06;5088021;28;20043;-75
2023/12/29 07:31:01;;;;;;;35.70;15.73;;;;;;;10.91;57.81;101169.72;5087883;28;20028;-76
2023/12/29 07:33:27;;;;;;;44.05;14.27;;;;;;;10.93;57.00;101165.94;5087619;28;20062;-74
2023/12/29 07:35:52;;;;;;;36.22;14.50;;;;;;;10.96;57.31;101162.13;5087573;28;20081;-74
2023/12/29 07:38:18;;;;;;;60.13;16.35;;;;;;;11.01;56.97;101169.88;5087847;28;20134;-75
2023/12/29 07:40:44;;;;;;;43.88;17.63;;;;;;;10.96;56.66;101158.59;5087578;28;20048;-74
2023/12/29 07:43:10;;;;;;;39.20;19.38;;;;;;;10.86;56.83;101161.09;5087730;28;20082;-75
2023/12/29 07:45:37;;;;;;;42.70;19.13;;;;;;;10.96;57.04;101166.66;5087842;28;20089;-75
2023/12/29 07:48:03;;;;;;;43.90;18.98;;;;;;;10.96;57.22;101162.13;5087705;28;20463;-74
2023/12/29 07:50:29;;;;;;;39.30;18.67;;;;;;;10.99;57.55;101153.84;5088001;28;20036;-73
2023/12/29 07:52:54;;;;;;;48.65;18.20;;;;;;;11.01;57.67;101169.88;5088029;28;20565;-76
2023/12/29 07:55:20;;;;;;;42.00;19.75;;;;;;;10.97;57.94;101166.56;5087678;28;20071;-76
2023/12/29 07:57:46;;;;;;;78.20;23.33;;;;;;;10.92;57.93;101157.94;5088033;28;20125;-76
2023/12/29 08:00:14;;;;;;;56.85;23.63;;;;;;;10.88;58.51;101133.13;5069084;28;20040;-76
2023/12/29 08:02:39;;;;;;;108.50;28.15;;;;;;;11.16;57.96;101161.50;5090196;28;20078;-76
2023/12/29 08:05:05;;;;;;;57.50;20.70;;;;;;;11.25;57.60;101166.19;5087602;28;20424;-74
2023/12/29 08:07:31;;;;;;;39.38;19.40;;;;;;;11.35;57.18;101159.13;5087570;28;20435;-74
2023/12/29 08:09:57;;;;;;;52.38;20.88;;;;;;;11.50;57.46;101154.41;5087347;28;20032;-75
2023/12/29 08:12:23;;;;;;;44.42;19.02;;;;;;;11.64;56.83;101159.59;5087672;28;20039;-74
2023/12/29 08:14:48;;;;;;;50.25;18.45;;;;;;;11.75;56.79;101159.66;5101781;28;20054;-77
2023/12/29 08:17:13;;;;;;;42.78;17.05;;;;;;;11.91;56.86;101170.97;5087546;28;20518;-76
2023/12/29 08:19:40;;;;;;;45.88;16.88;;;;;;;12.10;56.34;101164.13;5085955;28;20036;-75
2023/12/29 08:22:05;;;;;;;38.63;18.02;;;;;;;12.27;55.80;101158.22;5087422;28;20419;-74
2023/12/29 08:24:31;;;;;;;56.15;20.17;;;;;;;12.43;55.00;101156.03;5087144;28;20120;-74
2023/12/29 08:26:56;;;;;;;47.92;17.65;;;;;;;12.48;54.02;101156.50;5087594;28;20048;-75
2023/12/29 08:29:22;;;;;;;43.85;17.83;;;;;;;12.60;54.43;101160.06;5087289;28;20028;-76
2023/12/29 08:31:47;;;;;;;44.13;17.80;;;;;;;12.76;53.86;101164.06;5087116;28;20027;-75
2023/12/29 08:34:13;;;;;;;38.22;16.10;;;;;;;12.88;53.68;101146.00;5087372;28;20169;-76
2023/12/29 08:36:38;;;;;;;32.38;16.58;;;;;;;13.03;53.19;101159.09;5087309;28;20028;-75
2023/12/29 08:39:04;;;;;;;48.80;17.08;;;;;;;13.17;52.90;101157.13;5091159;28;20478;-75
2023/12/29 08:41:29;;;;;;;39.05;14.82;;;;;;;13.27;52.80;101158.09;5090939;28;20040;-74
2023/12/29 08:43:55;;;;;;;24.20;14.88;;;;;;;13.40;52.41;101147.94;5091477;28;20032;-75
2023/12/29 08:46:20;;;;;;;45.50;16.38;;;;;;;13.44;51.93;101144.84;5090872;28;20035;-75
2023/12/29 08:48:46;;;;;;;41.13;13.55;;;;;;;13.55;52.11;101135.81;5090898;28;20118;-74
2023/12/29 08:51:12;;;;;;;40.22;14.88;;;;;;;13.71;51.55;101143.47;5073283;28;20054;-75
2023/12/29 08:53:37;;;;;;;36.00;14.65;;;;;;;13.87;50.90;101150.13;5092882;28;20028;-76
2023/12/29 08:56:03;;;;;;;31.40;13.30;;;;;;;13.95;50.76;101144.03;5091187;28;20036;-76
2023/12/29 08:58:29;;;;;;;29.60;13.07;;;;;;;14.08;50.22;101145.56;5090521;28;20589;-75
2023/12/29 09:00:55;;;;;;;26.83;12.88;;;;;;;14.16;49.82;101140.31;5090595;28;20035;-75
2023/12/29 09:03:21;;;;;;;42.72;14.52;;;;;;;14.24;50.07;101138.78;5090464;28;20035;-76
2023/12/29 09:05:46;;;;;;;35.50;14.15;;;;;;;14.23;50.14;101129.81;5090520;28;20024;-75
2023/12/29 09:08:12;;;;;;;36.85;15.15;;;;;;;14.42;49.65;101148.00;5090149;28;20054;-75
2023/12/29 09:10:38;;;;;;;26.75;11.75;;;;;;;14.54;49.05;101147.78;5090418;28;20028;-75
2023/12/29 09:13:04;;;;;;;34.97;13.70;;;;;;;14.67;49.40;101142.09;5090451;28;20089;-75
2023/12/29 09:15:30;;;;;;;35.03;14.15;;;;;;;14.75;49.29;101127.88;5090498;28;20399;-75
2023/12/29 09:17:55;;;;;;;39.80;14.98;;;;;;;14.77;48.89;101134.84;5089093;28;20097;-75
2023/12/29 09:20:21;;;;;;;37.22;14.65;;;;;;;14.83;49.43;101131.56;5090252;28;20028;-74
2023/12/29 09:22:46;;;;;;;26.98;14.63;;;;;;;14.93;49.16;101121.63;5090272;28;20031;-76
2023/12/29 09:25:12;;;;;;;42.17;15.95;;;;;;;14.88;48.97;101121.19;5089564;28;20049;-76
2023/12/29 09:27:37;;;;;;;28.38;13.45;;;;;;;14.85;48.91;101097.09;5090114;28;20081;-75
2023/12/29 09:30:04;;;;;;;37.88;13.82;;;;;;;15.08;49.04;101114.78;5090084;28;20055;-77
2023/12/29 09:32:30;;;;;;;25.67;13.40;;;;;;;15.17;48.54;101103.09;5088690;28;20050;-75
2023/12/29 09:34:55;;;;;;;40.80;14.93;;;;;;;15.13;48.70;101096.28;5090092;28;20043;-75
2023/12/29 09:37:22;;;;;;;41.67;15.27;;;;;;;15.26;48.64;101102.25;5090188;28;20023;-75
2023/12/29 09:39:47;;;;;;;27.95;14.88;;;;;;;15.36;48.68;101090.53;5089778;28;20035;-74
2023/12/29 09:42:28;;;;;;;63.63;17.85;;;;;;;15.48;48.88;101106.53;5093424;28;20364;-75
2023/12/29 09:44:53;;;;;;;63.78;18.50;;;;;;;15.49;48.96;101091.13;5092716;28;20028;-76
2023/12/29 09:47:24;;;;;;;44.08;18.63;;;;;;;15.52;49.00;101102.56;5091012;28;20111;-76
2023/12/29 09:49:51;;;;;;;42.33;19.02;;;;;;;15.50;49.34;101082.00;5089752;28;20112;-74
2023/12/29 09:52:18;;;;;;;52.78;19.92;;;;;;;15.71;49.29;101107.94;5089621;28;20081;-74
2023/12/29 09:54:44;;;;;;;52.13;19.50;;;;;;;15.69;49.06;101103.63;5089215;28;20024;-74
2023/12/29 09:57:10;;;;;;;35.05;18.38;;;;;;;15.71;48.87;101099.81;5088988;28;20024;-75
2023/12/29 09:59:38;;;;;;;58.60;20.48;;;;;;;15.78;48.72;101102.75;5089313;28;20036;-75
2023/12/29 10:02:14;;;;;;;44.00;19.35;;;;;;;15.72;48.88;101092.50;5089170;28;20231;-75
2023/12/29 10:04:39;;;;;;;40.35;17.38;;;;;;;15.83;48.40;101100.50;5089101;28;20059;-74
2023/12/29 10:07:07;;;;;;;35.65;17.60;;;;;;;15.70;48.14;101089.09;5089122;28;20108;-74
2023/12/29 10:09:36;;;;;;;44.08;17.58;;;;;;;15.85;47.93;101103.91;5086749;28;20583;-74
2023/12/29 10:12:03;;;;;;;39.30;19.20;;;;;;;15.73;47.70;101075.25;5088809;28;20035;-76
2023/12/29 10:14:45;;;;;;;50.47;19.83;;;;;;;15.73;47.60;101073.38;5088808;28;20515;-74
2023/12/29 10:17:21;;;;;;;34.65;18.48;;;;;;;15.86;47.78;101094.78;5087369;28;20404;-75
2023/12/29 10:20:03;;;;;;;39.53;17.90;;;;;;;15.76;47.63;101085.78;5089190;28;20039;-74
2023/12/29 10:22:41;;;;;;;34.10;18.05;;;;;;;15.68;48.00;101058.56;5088761;28;20039;-76
2023/12/29 10:25:07;;;;;;;37.20;17.52;;;;;;;15.81;47.62;101080.78;5088411;28;20028;-76
2023/12/29 10:27:33;;;;;;;27.90;15.52;;;;;;;15.79;47.58;101077.38;5088887;28;20020;-75
2023/12/29 10:29:59;;;;;;;33.40;17.35;;;;;;;15.83;47.48;101073.38;5089187;28;20039;-75
2023/12/29 10:32:28;;;;;;;36.95;16.02;;;;;;;15.88;47.13;101060.19;5089035;28;20034;-75
2023/12/29 10:35:08;;;;;;;30.30;16.23;;;;;;;15.97;47.02;101075.59;5091136;28;20028;-75
2023/12/29 10:37:34;;;;;;;62.33;18.15;;;;;;;15.98;46.85;101071.88;5090642;28;20028;-76
2023/12/29 10:40:00;;;;;;;40.45;16.00;;;;;;;16.01;46.81;101077.00;5089039;28;20741;-76
2023/12/29 10:42:26;;;;;;;29.55;17.08;;;;;;;15.91;46.47;101054.47;5086392;28;20506;-74
2023/12/29 10:45:14;;;;;;;29.95;16.30;;;;;;;16.07;46.54;101070.97;5088257;28;20047;-75
2023/12/29 10:47:43;;;;;;;28.02;15.45;;;;;;;16.06;46.31;101069.25;5088554;28;20034;-76
2023/12/29 10:50:09;;;;;;;24.73;14.73;;;;;;;16.11;46.14;101069.69;5088814;28;20036;-75
2023/12/29 10:52:37;;;;;;;26.75;14.82;;;;;;;15.98;46.26;101038.47;5088703;28;20078;-74
2023/12/29 10:55:11;;;;;;;23.77;14.27;;;;;;;16.06;46.10;101039.41;5088735;28;20408;-75
2023/12/29 10:57:37;;;;;;;31.25;15.10;;;;;;;16.02;46.09;101029.03;5088796;28;20016;-77
2023/12/29 11:00:05;;;;;;;26.20;15.70;;;;;;;16.07;46.20;101027.56;5088632;28;20057;-74
2023/12/29 11:02:32;;;;;;;33.17;14.80;;;;;;;16.25;46.25;101028.47;5089073;28;20046;-76
2023/12/29 11:05:08;;;;;;;30.45;13.93;;;;;;;16.47;45.99;101058.91;5088317;28;20117;-75
2023/12/29 11:07:41;;;;;;;22.55;13.32;;;;;;;16.58;45.66;101053.28;5088645;28;20114;-75
2023/12/29 11:10:08;;;;;;;33.80;15.10;;;;;;;16.65;45.75;101049.84;5089070;28;20028;-75